Time;durP1;ratioP1;P1;durP2;ratioP2;P2;SDS_P1;SDS_P2;PMS_P1;PMS_P2;Temp;Humidity;BMP_temperature;BMP_pressure;BME280_temperature;BME280_humidity;BME280_pressure;Samples;Min_cycle;Max_cycle;Signal;HPM_P1;HPM_P2
2023/05/01 00:00:24;;;;;;;;;;;;;;;4.31;65.96;98900.85;103540;1327;123122;-82
2023/05/01 00:07:52;;;;;;;;;;;;;;;4.23;66.29;98899.55;103703;1318;547084;-85
2023/05/01 00:11:20;;;;;;;;;;;;;;;4.17;66.53;98901.91;106254;1296;23886;-84
2023/05/01 00:18:16;;;;;;;;;;;;;;;4.12;66.79;98906.51;104898;1293;123179;-84
2023/05/01 00:21:44;;;;;;;;;;;;;;;4.10;67.30;98904.41;100733;1313;5495084;-85
2023/05/01 00:25:09;;;;;;;;;;;;;;;4.06;67.52;98906.90;103928;1321;124355;-84
2023/05/01 00:28:35;;;;;;;;;;;;;;;3.99;67.88;98906.79;103712;1309;22597;-85
2023/05/01 00:39:31;;;;;;;;;;;;;;;3.82;68.67;98910.45;104793;1293;22536;-83
2023/05/01 00:42:43;;;;;;;;;;;;;;;;;;;;;
2023/05/01 00:46:24;;;;;;;;;;;;;;;3.70;68.87;98908.80;103558;1311;22591;-83
2023/05/01 00:57:22;;;;;;;;;;;;;;;3.57;68.51;98905.61;106504;1297;22866;-85
2023/05/01 01:00:51;;;;;;;;;;;;;;;3.56;68.65;98909.84;106088;1294;124052;-86
2023/05/01 01:04:16;;;;;;;;;;;;;;;3.54;68.83;98910.77;105575;1289;22583;-88
2023/05/01 01:07:45;;;;;;;;;;;;;;;3.52;68.54;98913.19;100475;1311;5477239;-83
2023/05/01 01:14:41;;;;;;;;;;;;;;;;;;;;;
2023/05/01 01:28:56;;;;;;;;;;;;;;;3.38;68.92;98903.07;103612;1320;22694;-86
2023/05/01 01:39:15;;;;;;;;;;;;;;;3.33;69.00;98904.23;104369;1310;22693;-85
2023/05/01 01:42:27;;;;;;;;;;;;;;;;;;;;;
2023/05/01 01:45:53;;;;;;;;;;;;;;;;;;;;;
2023/05/01 02:14:28;;;;;;;;;;;;;;;3.07;70.20;98894.20;103489;1308;544871;-86
2023/05/01 02:17:55;;;;;;;;;;;;;;;3.03;70.00;98892.70;105193;1307;24886;-88
2023/05/01 02:24:51;;;;;;;;;;;;;;;3.01;70.58;98887.27;103960;1303;124304;-83
2023/05/01 02:31:49;;;;;;;;;;;;;;;3.00;70.38;98880.63;104012;1318;123777;-86
2023/05/01 02:42:14;;;;;;;;;;;;;;;2.96;70.26;98886.08;102385;1336;22626;-86
2023/05/01 02:53:14;;;;;;;;;;;;;;;2.85;70.62;98870.85;105158;1307;22608;-86
2023/05/01 02:56:41;;;;;;;;;;;;;;;2.79;70.67;98874.56;104194;1310;123329;-83
2023/05/01 03:03:34;;;;;;;;;;;;;;;2.72;71.00;98877.20;99911;1315;5456497;-88
2023/05/01 03:07:05;;;;;;;;;;;;;;;2.70;71.16;98878.02;103212;1321;123923;-88
2023/05/01 03:10:32;;;;;;;;;;;;;;;2.72;71.64;98876.55;102793;1316;22680;-86
2023/05/01 03:18:02;;;;;;;;;;;;;;;2.72;72.41;98874.10;103931;1314;547292;-88
2023/05/01 03:21:30;;;;;;;;;;;;;;;2.67;72.30;98870.13;106343;1292;22611;-87
2023/05/01 03:24:58;;;;;;;;;;;;;;;2.66;72.14;98870.66;105688;1294;123422;-86
2023/05/01 03:31:53;;;;;;;;;;;;;;;2.63;72.17;98866.14;100168;1317;5464193;-87
2023/05/01 03:34:54;;;;;;;;;;;;;;;2.63;72.24;98860.81;103581;1315;24265;-83
2023/05/01 03:38:46;;;;;;;;;;;;;;;2.63;72.54;98868.13;103120;1311;123911;-86
2023/05/01 03:41:48;;;;;;;;;;;;;;;2.63;72.48;98865.58;103120;1330;22549;-87
2023/05/01 03:45:43;;;;;;;;;;;;;;;2.64;72.53;98861.16;103170;1327;25268;-85
2023/05/01 03:49:09;;;;;;;;;;;;;;;2.66;72.62;98860.23;103092;1311;124080;-87
2023/05/01 04:03:31;;;;;;;;;;;;;;;2.83;72.44;98853.03;104045;1316;22588;-87
2023/05/01 04:06:58;;;;;;;;;;;;;;;2.88;73.32;98853.35;103817;1308;124479;-85
2023/05/01 04:17:20;;;;;;;;;;;;;;;;;;;;;
2023/05/01 04:21:13;;;;;;;;;;;;;;;3.14;73.47;98850.14;103886;1316;123875;-87
2023/05/01 05:00:20;;;;;;;;;;;;;;;3.99;74.37;98843.57;104384;1299;22563;-86
2023/05/01 05:07:12;;;;;;;;;;;;;;;4.24;76.40;98838.32;104169;1320;123921;-85
2023/05/01 05:10:38;;;;;;;;;;;;;;;4.31;76.50;98835.61;103626;1308;25354;-84
2023/05/01 05:14:04;;;;;;;;;;;;;;;4.39;76.85;98830.64;103369;1328;124121;-85
2023/05/01 05:21:32;;;;;;;;;;;;;;;4.58;77.84;98829.20;103469;1326;564552;-86
2023/05/01 05:31:55;;;;;;;;;;;;;;;4.94;77.49;98828.46;103913;1310;124067;-86
2023/05/01 05:39:23;;;;;;;;;;;;;;;5.28;75.39;98833.27;103463;1308;545323;-84
2023/05/01 05:46:16;;;;;;;;;;;;;;;5.62;72.19;98841.65;104106;1315;22694;-85
2023/05/01 06:00:40;;;;;;;;;;;;;;;6.42;68.61;98839.95;105739;1297;22516;-85
2023/05/01 06:04:06;;;;;;;;;;;;;;;6.58;67.89;98838.36;104901;1308;22735;-85
2023/05/01 06:07:34;;;;;;;;;;;;;;;6.80;67.54;98833.09;105573;1286;123686;-85
2023/05/01 06:10:47;;;;;;;;;;;;;;;;;;;;;
2023/05/01 06:14:26;;;;;;;;;;;;;;;7.13;66.52;98834.70;104565;1305;124044;-84
2023/05/01 06:20:54;;;;;;;;;;;;;;;7.43;64.53;98836.30;102752;1330;123803;-86
2023/05/01 06:32:09;;;;;;;;;;;;;;;7.90;63.52;98834.39;105368;1305;123437;-85
2023/05/01 06:35:35;;;;;;;;;;;;;;;8.05;62.66;98834.83;104646;1314;22601;-85
2023/05/01 06:42:31;;;;;;;;;;;;;;;8.31;62.29;98835.13;99366;1331;5577954;-82
2023/05/01 06:53:25;;;;;;;;;;;;;;;8.78;60.80;98828.44;104723;1315;25445;-83
2023/05/01 07:04:22;;;;;;;;;;;;;;;9.25;58.26;98821.54;103845;1304;546853;-83
2023/05/01 07:14:43;;;;;;;;;;;;;;;9.62;57.33;98818.56;104413;1317;122709;-82
2023/05/01 07:22:11;;;;;;;;;;;;;;;9.92;57.30;98828.38;103176;1310;565793;-84
2023/05/01 07:25:37;;;;;;;;;;;;;;;10.08;56.33;98826.40;105001;1306;22558;-86
2023/05/01 07:29:03;;;;;;;;;;;;;;;10.21;55.22;98826.41;104301;1317;25239;-84
2023/05/01 07:32:31;;;;;;;;;;;;;;;10.35;54.18;98825.91;103834;1305;123179;-85
2023/05/01 07:39:22;;;;;;;;;;;;;;;10.62;53.55;98825.91;103018;1331;123691;-84
2023/05/01 07:53:53;;;;;;;;;;;;;;;11.24;52.47;98826.30;104217;1311;22615;-85
2023/05/01 07:57:22;;;;;;;;;;;;;;;11.40;52.41;98824.55;103592;1306;123129;-84
2023/05/01 08:04:53;;;;;;;;;;;;;;;11.75;51.38;98819.80;103821;1304;560094;-85
2023/05/01 08:15:38;;;;;;;;;;;;;;;12.19;49.03;98817.19;104228;1309;122971;-85
2023/05/01 08:26:42;;;;;;;;;;;;;;;12.62;48.02;98824.13;103757;1305;558566;-82
2023/05/01 08:30:10;;;;;;;;;;;;;;;12.78;48.33;98810.46;105093;1302;22530;-84
2023/05/01 08:33:22;;;;;;;;;;;;;;;;;;;;;
2023/05/01 08:37:03;;;;;;;;;;;;;;;13.05;47.58;98807.85;104174;1302;22554;-84
2023/05/01 08:40:29;;;;;;;;;;;;;;;13.19;48.14;98808.95;99562;1327;5438558;-84
2023/05/01 08:47:52;;;;;;;;;;;;;;;13.55;47.02;98806.81;103858;1318;545124;-85
2023/05/01 08:51:21;;;;;;;;;;;;;;;13.68;46.25;98804.22;106166;1295;123110;-83
2023/05/01 08:54:15;;;;;;;;;;;;;;;;;;;;;
2023/05/01 08:57:34;;;;;;;;;;;;;;;13.94;45.51;98799.08;105554;1284;123092;-84
2023/05/01 09:01:20;;;;;;;;;;;;;;;14.03;45.30;98805.45;101548;1301;5464003;-85
2023/05/01 09:04:48;;;;;;;;;;;;;;;14.11;44.99;98799.78;105502;1300;25275;-86
2023/05/01 09:07:34;;;;;;;;;;;;;;;14.23;46.11;98798.52;105690;1283;125324;-84
2023/05/01 09:11:06;;;;;;;;;;;;;;;;;;;;;
2023/05/01 09:18:18;;;;;;;;;;;;;;;14.72;45.88;98776.77;105761;1281;23290;-83
2023/05/01 09:21:13;;;;;;;;;;;;;;;;;;;;;
2023/05/01 09:24:33;;;;;;;;;;;;;;;;;;;;;
2023/05/01 09:28:13;;;;;;;;;;;;;;;;;;;;;
2023/05/01 09:31:15;;;;;;;;;;;;;;;;;;;;;
2023/05/01 09:35:01;;;;;;;;;;;;;;;15.40;44.81;98765.89;104556;1312;24262;-84
2023/05/01 09:38:33;;;;;;;;;;;;;;;15.57;43.63;98759.29;104431;1295;123531;-84
2023/05/01 09:41:47;;;;;;;;;;;;;;;15.71;42.78;98757.90;104648;1309;22550;-85
2023/05/01 09:44:55;;;;;;;;;;;;;;;;;;;;;
2023/05/01 09:48:50;;;;;;;;;;;;;;;16.04;41.13;98756.70;104604;1295;22856;-84
2023/05/01 09:52:09;;;;;;;;;;;;;;;16.11;40.93;98754.19;104301;1315;123244;-85
2023/05/01 09:55:35;;;;;;;;;;;;;;;16.27;41.10;98749.63;104190;1319;22582;-85
2023/05/01 09:58:29;;;;;;;;;;;;;;;;;;;;;
2023/05/01 10:02:00;;;;;;;;;;;;;;;;;;;;;
2023/05/01 10:05:11;;;;;;;;;;;;;;;;;;;;;
2023/05/01 10:08:23;;;;;;;;;;;;;;;;;;;;;
2023/05/01 10:12:01;;;;;;;;;;;;;;;;;;;;;
2023/05/01 10:19:16;;;;;;;;;;;;;;;;;;;;;
2023/05/01 10:23:09;;;;;;;;;;;;;;;17.31;39.37;98712.74;106360;1294;22527;-85
2023/05/01 10:29:33;;;;;;;;;;;;;;;;;;;;;
2023/05/01 10:32:53;;;;;;;;;;;;;;;;;;;;;
2023/05/01 10:36:47;;;;;;;;;;;;;;;17.84;38.37;98704.39;104809;1311;24254;-85
2023/05/01 10:40:14;;;;;;;;;;;;;;;17.95;37.49;98697.44;104507;1295;123287;-84
2023/05/01 10:43:07;;;;;;;;;;;;;;;;;;;;;
2023/05/01 10:47:01;;;;;;;;;;;;;;;;;;;;;
2023/05/01 10:50:19;;;;;;;;;;;;;;;;;;;;;
2023/05/01 10:53:43;;;;;;;;;;;;;;;;;;;;;
2023/05/01 10:57:35;;;;;;;;;;;;;;;18.65;36.62;98688.13;105561;1284;123069;-83
2023/05/01 11:01:04;;;;;;;;;;;;;;;18.66;36.21;98689.90;101785;1300;5471672;-85
2023/05/01 11:04:31;;;;;;;;;;;;;;;18.73;35.91;98682.91;105720;1300;123552;-85
2023/05/01 11:07:34;;;;;;;;;;;;;;;;;;;;;
2023/05/01 11:11:30;;;;;;;;;;;;;;;18.91;34.57;98673.45;105873;1300;24233;-85
2023/05/01 11:15:00;;;;;;;;;;;;;;;;;;;;;
2023/05/01 11:22:09;;;;;;;;;;;;;;;19.26;35.50;98663.69;104484;1309;123376;-84
2023/05/01 11:25:36;;;;;;;;;;;;;;;19.34;34.84;98659.92;104813;1300;22698;-85
2023/05/01 11:29:03;;;;;;;;;;;;;;;19.37;35.06;98653.03;104055;1302;123153;-84
2023/05/01 11:32:29;;;;;;;;;;;;;;;19.44;34.92;98645.48;103750;1321;22667;-83
2023/05/01 11:35:47;;;;;;;;;;;;;;;19.54;35.47;98647.81;103362;1328;24312;-83
2023/05/01 11:42:42;;;;;;;;;;;;;;;19.66;33.67;98635.52;102984;1331;22805;-85
2023/05/01 11:46:00;;;;;;;;;;;;;;;;;;;;;
2023/05/01 11:49:27;;;;;;;;;;;;;;;;;;;;;
2023/05/01 11:52:27;;;;;;;;;;;;;;;;;;;;;
2023/05/01 11:56:06;;;;;;;;;;;;;;;;;;;;;
2023/05/01 11:59:38;;;;;;;;;;;;;;;20.25;33.95;98627.77;103684;1310;22581;-85
2023/05/01 12:03:05;;;;;;;;;;;;;;;20.39;33.27;98626.13;102966;1328;124330;-85
2023/05/01 12:06:30;;;;;;;;;;;;;;;20.45;33.16;98615.72;102887;1328;22692;-84
2023/05/01 12:09:42;;;;;;;;;;;;;;;;;;;;;
2023/05/01 12:13:15;;;;;;;;;;;;;;;20.66;32.94;98611.06;103049;1329;22650;-84
2023/05/01 12:16:10;;;;;;;;;;;;;;;;;;;;;
2023/05/01 12:19:55;;;;;;;;;;;;;;;20.83;31.73;98603.16;103056;1313;24332;-85
2023/05/01 12:23:21;;;;;;;;;;;;;;;20.91;32.14;98601.59;102290;1337;125328;-85
2023/05/01 12:26:09;;;;;;;;;;;;;;;;;;;;;
2023/05/01 12:29:46;;;;;;;;;;;;;;;;;;;;;
2023/05/01 12:33:42;;;;;;;;;;;;;;;21.19;31.51;98580.98;103883;1301;544398;-85
2023/05/01 12:36:28;;;;;;;;;;;;;;;;;;;;;
2023/05/01 12:39:48;;;;;;;;;;;;;;;;;;;;;
2023/05/01 12:43:11;;;;;;;;;;;;;;;;;;;;;
2023/05/01 12:46:51;;;;;;;;;;;;;;;;;;;;;
2023/05/01 12:50:31;;;;;;;;;;;;;;;21.41;29.43;98557.63;105107;1308;23742;-85
2023/05/01 12:54:07;;;;;;;;;;;;;;;21.51;29.26;98552.75;104654;1307;22540;-85
2023/05/01 12:56:52;;;;;;;;;;;;;;;;;;;;;
2023/05/01 13:00:29;;;;;;;;;;;;;;;;;;;;;
2023/05/01 13:03:56;;;;;;;;;;;;;;;;;;;;;
2023/05/01 13:07:16;;;;;;;;;;;;;;;21.83;28.83;98538.98;103070;1331;25503;-84
2023/05/01 13:14:15;;;;;;;;;;;;;;;22.10;28.03;98531.83;104149;1295;547675;-84
2023/05/01 13:17:43;;;;;;;;;;;;;;;;;;;;;
2023/05/01 13:20:58;;;;;;;;;;;;;;;;;;;;;
2023/05/01 13:24:58;;;;;;;;;;;;;;;22.23;27.56;98523.75;106257;1289;25339;-84
2023/05/01 13:28:24;;;;;;;;;;;;;;;22.31;28.29;98519.67;102527;1292;5513194;-84
2023/05/01 13:31:11;;;;;;;;;;;;;;;;;;;;;
2023/05/01 13:34:24;;;;;;;;;;;;;;;;;;;;;
2023/05/01 13:37:27;;;;;;;;;;;;;;;;;;;;;
2023/05/01 13:41:20;;;;;;;;;;;;;;;22.36;28.12;98500.82;106477;1285;123352;-85
2023/05/01 13:44:33;;;;;;;;;;;;;;;;;;;;;
2023/05/01 13:51:02;;;;;;;;;;;;;;;;;;;;;
2023/05/01 13:54:08;;;;;;;;;;;;;;;;;;;;;
2023/05/01 13:57:40;;;;;;;;;;;;;;;;;;;;;
2023/05/01 14:00:58;;;;;;;;;;;;;;;;;;;;;
2023/05/01 14:04:38;;;;;;;;;;;;;;;22.88;27.35;98481.27;105618;1273;123247;-84
2023/05/01 14:07:25;;;;;;;;;;;;;;;;;;;;;
2023/05/01 14:11:18;;;;;;;;;;;;;;;22.83;26.67;98471.77;106204;1296;123222;-85
2023/05/01 14:13:58;;;;;;;;;;;;;;;;;;;;;
2023/05/01 14:17:45;;;;;;;;;;;;;;;22.71;27.00;98464.41;106284;1295;123133;-84
2023/05/01 14:20:54;;;;;;;;;;;;;;;;;;;;;
2023/05/01 14:24:36;;;;;;;;;;;;;;;22.68;26.92;98450.59;105841;1300;25399;-85
2023/05/01 14:27:55;;;;;;;;;;;;;;;22.67;27.28;98446.77;105000;1287;124738;-85
2023/05/01 14:31:21;;;;;;;;;;;;;;;22.65;26.90;98446.99;104899;1305;22586;-85
2023/05/01 14:34:47;;;;;;;;;;;;;;;22.64;27.97;98437.16;105042;1305;123739;-85
2023/05/01 14:38:00;;;;;;;;;;;;;;;;;;;;;
2023/05/01 14:41:20;;;;;;;;;;;;;;;;;;;;;
2023/05/01 14:44:29;;;;;;;;;;;;;;;;;;;;;
2023/05/01 14:48:14;;;;;;;;;;;;;;;22.50;26.48;98427.75;104014;1298;22773;-86
2023/05/01 14:51:08;;;;;;;;;;;;;;;;;;;;;
2023/05/01 14:54:05;;;;;;;;;;;;;;;;;;;;;
2023/05/01 14:57:30;;;;;;;;;;;;;;;;;;;;;
2023/05/01 15:00:28;;;;;;;;;;;;;;;22.67;27.30;98414.48;104343;1311;24324;-86
2023/05/01 15:03:51;;;;;;;;;;;;;;;;;;;;;
2023/05/01 15:07:14;;;;;;;;;;;;;;;;;;;;;
2023/05/01 15:10:35;;;;;;;;;;;;;;;;;;;;;
2023/05/01 15:14:35;;;;;;;;;;;;;;;22.62;26.36;98403.99;104875;1299;22607;-86
2023/05/01 15:18:02;;;;;;;;;;;;;;;22.60;26.52;98401.24;104880;1289;22534;-86
2023/05/01 15:21:13;;;;;;;;;;;;;;;22.55;26.50;98397.69;104961;1302;22540;-85
2023/05/01 15:24:25;;;;;;;;;;;;;;;;;;;;;
2023/05/01 15:27:32;;;;;;;;;;;;;;;;;;;;;
2023/05/01 15:31:23;;;;;;;;;;;;;;;22.40;27.39;98392.77;104781;1306;22600;-86
2023/05/01 15:34:18;;;;;;;;;;;;;;;;;;;;;
2023/05/01 15:37:15;;;;;;;;;;;;;;;;;;;;;
2023/05/01 15:41:07;;;;;;;;;;;;;;;22.37;26.99;98385.82;104248;1314;123529;-86
2023/05/01 15:43:52;;;;;;;;;;;;;;;22.28;27.07;98388.02;104231;1320;22563;-86
2023/05/01 15:47:29;;;;;;;;;;;;;;;;;;;;;
2023/05/01 15:50:42;;;;;;;;;;;;;;;;;;;;;
2023/05/01 15:54:32;;;;;;;;;;;;;;;22.01;27.26;98383.27;104328;1313;22586;-86
2023/05/01 15:57:58;;;;;;;;;;;;;;;21.85;26.83;98378.07;104439;1292;123469;-86
2023/05/01 16:00:38;;;;;;;;;;;;;;;;;;;;;
2023/05/01 16:04:16;;;;;;;;;;;;;;;21.71;28.29;98375.74;104618;1310;124321;-85
2023/05/01 16:07:10;;;;;;;;;;;;;;;;;;;;;
2023/05/01 16:11:15;;;;;;;;;;;;;;;21.33;28.73;98365.67;104303;1298;123591;-85
2023/05/01 16:17:54;;;;;;;;;;;;;;;;;;;;;
2023/05/01 16:25:06;;;;;;;;;;;;;;;20.60;30.05;98365.12;104506;1315;23140;-85
2023/05/01 16:28:25;;;;;;;;;;;;;;;20.72;29.77;98363.15;104057;1311;124368;-84
2023/05/01 16:31:37;;;;;;;;;;;;;;;;;;;;;
2023/05/01 16:34:52;;;;;;;;;;;;;;;;;;;;;
2023/05/01 16:38:38;;;;;;;;;;;;;;;;;;;;;
2023/05/01 16:42:32;;;;;;;;;;;;;;;21.42;31.34;98354.65;106432;1297;22536;-86
2023/05/01 16:45:53;;;;;;;;;;;;;;;22.06;30.22;98351.58;105609;1303;123415;-85
2023/05/01 16:49:13;;;;;;;;;;;;;;;22.82;29.49;98351.46;105299;1287;24255;-87
2023/05/01 16:52:34;;;;;;;;;;;;;;;23.83;28.82;98345.27;101340;1304;5505452;-84
2023/05/01 16:58:50;;;;;;;;;;;;;;;;;;;;;
2023/05/01 17:02:11;;;;;;;;;;;;;;;;;;;;;
2023/05/01 17:05:57;;;;;;;;;;;;;;;24.31;26.80;98340.71;104239;1316;123491;-88
2023/05/01 17:09:15;;;;;;;;;;;;;;;23.70;27.43;98339.34;104012;1304;22543;-88
2023/05/01 17:12:04;;;;;;;;;;;;;;;;;;;;;
2023/05/01 17:15:29;;;;;;;;;;;;;;;;;;;;;
2023/05/01 17:19:37;;;;;;;;;;;;;;;21.54;29.75;98338.64;104145;1298;22617;-89
2023/05/01 17:22:40;;;;;;;;;;;;;;;;;;;;;
2023/05/01 17:25:57;;;;;;;;;;;;;;;;;;;;;
2023/05/01 17:30:04;;;;;;;;;;;;;;;19.92;32.47;98334.58;104176;1302;123912;-87
2023/05/01 17:32:58;;;;;;;;;;;;;;;;;;;;;
2023/05/01 17:36:26;;;;;;;;;;;;;;;;;;;;;
2023/05/01 17:39:26;;;;;;;;;;;;;;;18.68;34.83;98339.86;105098;1308;124501;-87
2023/05/01 17:46:07;;;;;;;;;;;;;;;;;;;;;
2023/05/01 17:49:46;;;;;;;;;;;;;;;;;;;;;
2023/05/01 17:53:31;;;;;;;;;;;;;;;17.23;37.69;98334.69;106097;1291;123238;-86
2023/05/01 17:56:23;;;;;;;;;;;;;;;;;;;;;
2023/05/01 17:59:44;;;;;;;;;;;;;;;;;;;;;
2023/05/01 18:07:02;;;;;;;;;;;;;;;15.98;40.02;98341.72;103921;1315;22565;-88
2023/05/01 18:13:42;;;;;;;;;;;;;;;;;;;;;
2023/05/01 18:21:21;;;;;;;;;;;;;;;15.00;42.44;98338.09;103891;1305;545265;-86
2023/05/01 18:24:48;;;;;;;;;;;;;;;14.75;43.31;98342.17;106913;1297;22677;-87
2023/05/01 18:31:33;;;;;;;;;;;;;;;;;;;;;
2023/05/01 18:35:14;;;;;;;;;;;;;;;14.26;44.98;98349.69;100615;1306;5464239;-86
2023/05/01 18:38:40;;;;;;;;;;;;;;;14.10;45.52;98352.84;104519;1315;22558;-87
2023/05/01 19:03:10;;;;;;;;;;;;;;;;;;;;;
2023/05/01 19:10:53;;;;;;;;;;;;;;;13.05;50.20;98348.38;103742;1317;544395;-87
2023/05/01 19:13:55;;;;;;;;;;;;;;;;;;;;;
2023/05/01 19:32:11;;;;;;;;;;;;;;;12.46;52.72;98342.54;104075;1314;559523;-88
2023/05/01 19:36:03;;;;;;;;;;;;;;;12.37;52.98;98341.41;106520;1291;123215;-87
2023/05/01 19:39:16;;;;;;;;;;;;;;;;;;;;;
2023/05/01 19:43:00;;;;;;;;;;;;;;;12.24;53.74;98339.23;104819;1292;25450;-87
2023/05/01 19:49:26;;;;;;;;;;;;;;;;;;;;;
2023/05/01 19:53:04;;;;;;;;;;;;;;;;;;;;;
2023/05/01 20:00:35;;;;;;;;;;;;;;;11.95;55.06;98333.38;104359;1304;544643;-87
2023/05/01 20:03:58;;;;;;;;;;;;;;;11.86;55.17;98336.03;105835;1295;23609;-87
2023/05/01 20:07:27;;;;;;;;;;;;;;;11.80;56.21;98339.80;105974;1297;22651;-87
2023/05/01 20:14:08;;;;;;;;;;;;;;;;;;;;;
2023/05/01 20:17:39;;;;;;;;;;;;;;;11.62;56.40;98332.65;104071;1319;123853;-87
2023/05/01 20:20:39;;;;;;;;;;;;;;;;;;;;;
2023/05/01 20:27:58;;;;;;;;;;;;;;;;;;;;;
2023/05/01 20:31:12;;;;;;;;;;;;;;;;;;;;;
2023/05/01 20:42:26;;;;;;;;;;;;;;;11.19;58.68;98326.13;105746;1303;123163;-85
2023/05/01 20:49:21;;;;;;;;;;;;;;;11.05;58.56;98331.10;104151;1301;22578;-87
2023/05/01 21:07:09;;;;;;;;;;;;;;;10.69;59.30;98332.06;104004;1321;122958;-87
2023/05/01 21:21:19;;;;;;;;;;;;;;;;;;;;;
2023/05/01 21:31:54;;;;;;;;;;;;;;;10.15;61.38;98352.91;101055;1311;5458025;-86
2023/05/01 21:42:48;;;;;;;;;;;;;;;9.99;61.86;98362.98;103664;1307;545738;-86
2023/05/01 21:46:16;;;;;;;;;;;;;;;9.92;61.79;98371.86;105588;1305;24254;-87
2023/05/01 21:49:44;;;;;;;;;;;;;;;9.88;62.19;98374.39;105991;1303;25265;-86
2023/05/01 21:52:45;;;;;;;;;;;;;;;;;;;;;
2023/05/01 21:56:40;;;;;;;;;;;;;;;9.81;62.45;98378.02;101330;1307;5468016;-86
2023/05/01 22:11:10;;;;;;;;;;;;;;;9.60;63.29;98384.82;104105;1319;557783;-85
2023/05/01 22:14:37;;;;;;;;;;;;;;;9.52;63.40;98386.29;105977;1302;23296;-87
2023/05/01 22:21:37;;;;;;;;;;;;;;;9.46;63.50;98385.40;104495;1298;22554;-86
2023/05/01 22:25:04;;;;;;;;;;;;;;;9.43;63.23;98390.08;99745;1323;5498491;-85
2023/05/01 22:32:32;;;;;;;;;;;;;;;9.38;63.48;98391.98;103984;1306;544444;-85
2023/05/01 22:36:01;;;;;;;;;;;;;;;9.29;64.14;98398.05;105892;1301;123219;-85
2023/05/01 22:43:30;;;;;;;;;;;;;;;9.19;64.76;98400.26;103639;1308;546561;-86
2023/05/01 22:46:58;;;;;;;;;;;;;;;9.10;64.76;98399.62;105474;1307;22577;-85
2023/05/01 22:53:30;;;;;;;;;;;;;;;8.99;65.18;98396.10;104160;1299;123003;-85
2023/05/01 23:08:15;;;;;;;;;;;;;;;8.87;65.36;98390.23;104344;1318;22546;-85
2023/05/01 23:11:41;;;;;;;;;;;;;;;8.84;65.40;98390.10;104041;1306;122800;-86
2023/05/01 23:15:08;;;;;;;;;;;;;;;8.81;65.08;98391.77;99477;1329;5452912;-86
2023/05/01 23:22:37;;;;;;;;;;;;;;;8.80;65.64;98394.96;103975;1302;545481;-85
2023/05/01 23:25:49;;;;;;;;;;;;;;;;;;;;;
2023/05/01 23:50:46;;;;;;;;;;;;;;;8.30;68.24;98393.64;104034;1315;547411;-84
2023/05/01 23:54:14;;;;;;;;;;;;;;;8.25;68.05;98396.17;105746;1304;123673;-85
